createdAt,value
2023-05-15T00:00:13.044Z,151895.47
2023-05-15T00:02:39.275Z,151892.94
2023-05-15T00:05:08.233Z,151911.94
2023-05-15T00:07:35.759Z,151891.69
2023-05-15T00:10:02.108Z,151911.94
2023-05-15T00:12:28.284Z,151917.00
2023-05-15T00:14:54.206Z,151924.59
2023-05-15T00:17:20.094Z,151909.38
2023-05-15T00:19:46.140Z,151924.59
2023-05-15T00:22:12.034Z,151880.25
2023-05-15T00:24:37.809Z,151873.94
2023-05-15T00:27:03.863Z,151887.84
2023-05-15T00:29:29.783Z,151885.31
2023-05-15T00:31:55.832Z,151835.88
2023-05-15T00:34:22.097Z,151834.59
2023-05-15T00:36:48.130Z,151833.34
2023-05-15T00:39:13.961Z,151842.22
2023-05-15T00:41:41.160Z,151838.44
2023-05-15T00:44:08.949Z,151847.28
2023-05-15T00:46:35.673Z,151832.06
2023-05-15T00:49:04.126Z,151832.06
2023-05-15T00:51:30.402Z,151810.53
2023-05-15T00:53:58.107Z,151837.13
2023-05-15T00:56:24.760Z,151813.06
2023-05-15T00:58:53.063Z,151853.59
2023-05-15T01:01:19.216Z,151901.78
2023-05-15T01:03:45.331Z,151930.97
2023-05-15T01:06:11.711Z,151951.25
2023-05-15T01:08:42.952Z,151955.03
2023-05-15T01:11:10.952Z,151975.31
2023-05-15T01:13:36.805Z,152000.72
2023-05-15T01:16:03.334Z,151985.47
2023-05-15T01:18:31.729Z,151995.59
2023-05-15T01:21:19.844Z,152008.28
2023-05-15T01:24:08.288Z,152003.22
2023-05-15T01:26:55.641Z,151994.34
2023-05-15T01:29:31.859Z,151996.88
2023-05-15T01:32:06.184Z,152013.34
2023-05-15T01:34:45.260Z,152001.97
2023-05-15T01:37:13.829Z,151993.06
2023-05-15T01:39:42.211Z,151942.34
2023-05-15T01:42:10.116Z,151909.38
2023-05-15T01:44:39.903Z,151834.59
2023-05-15T01:47:17.213Z,151829.53
2023-05-15T01:49:44.849Z,151820.69
2023-05-15T01:52:35.913Z,151818.13
2023-05-15T01:55:03.664Z,151865.03
2023-05-15T01:57:30.968Z,151892.94
2023-05-15T01:59:58.040Z,151920.81
2023-05-15T02:02:26.058Z,151872.63
2023-05-15T02:04:52.486Z,151894.22
2023-05-15T02:07:19.565Z,151896.75
2023-05-15T02:09:46.899Z,151866.31
2023-05-15T02:12:13.104Z,151854.88
2023-05-15T02:14:40.576Z,151875.19
2023-05-15T02:17:07.028Z,151891.69
2023-05-15T02:19:32.879Z,151896.75
2023-05-15T02:21:58.937Z,151887.84
2023-05-15T02:24:24.814Z,151813.06
2023-05-15T02:27:01.827Z,151808.00
2023-05-15T02:29:27.562Z,151759.84
2023-05-15T02:31:53.422Z,151782.63
2023-05-15T02:34:27.568Z,151804.22
2023-05-15T02:36:56.577Z,151840.97
2023-05-15T02:39:24.346Z,151877.72
2023-05-15T02:41:51.636Z,151905.59
2023-05-15T02:44:17.800Z,151920.81
2023-05-15T02:46:43.887Z,151928.44
2023-05-15T02:49:10.830Z,151919.53
2023-05-15T02:51:36.800Z,151852.34
2023-05-15T02:54:03.406Z,151828.28
2023-05-15T02:56:29.163Z,151797.84
2023-05-15T02:58:55.183Z,151808.00
2023-05-15T03:01:21.257Z,151838.44
2023-05-15T03:03:47.352Z,151871.34
2023-05-15T03:06:13.192Z,151851.09
2023-05-15T03:08:38.997Z,151847.28
2023-05-15T03:11:05.546Z,151840.97
2023-05-15T03:13:31.346Z,151749.72
2023-05-15T03:15:57.289Z,151735.72
2023-05-15T03:18:23.038Z,151748.47
2023-05-15T03:20:51.935Z,151735.72
2023-05-15T03:23:18.148Z,151701.53
2023-05-15T03:25:44.047Z,151718.00
2023-05-15T03:28:10.777Z,151745.84
2023-05-15T03:30:36.893Z,151762.38
2023-05-15T03:33:03.261Z,151720.53
2023-05-15T03:35:31.427Z,151734.47
2023-05-15T03:37:57.446Z,151742.06
2023-05-15T03:40:23.254Z,151748.47
2023-05-15T03:42:52.636Z,151731.94
2023-05-15T03:45:19.411Z,151761.09
2023-05-15T03:47:45.337Z,151720.53
2023-05-15T03:50:11.288Z,151688.84
2023-05-15T03:52:37.469Z,151710.38
2023-05-15T03:55:04.519Z,151709.09
2023-05-15T03:57:34.811Z,151706.56
2023-05-15T04:00:03.272Z,151701.53
2023-05-15T04:02:29.091Z,151701.53
2023-05-15T04:04:54.947Z,151724.31
2023-05-15T04:07:20.697Z,151726.84
2023-05-15T04:09:46.529Z,151753.53
2023-05-15T04:12:12.284Z,151725.56
2023-05-15T04:14:38.113Z,151762.38
2023-05-15T04:17:03.995Z,151749.72
2023-05-15T04:19:29.824Z,151754.78
2023-05-15T04:21:55.900Z,151756.03
2023-05-15T04:24:21.669Z,151787.75
2023-05-15T04:26:47.729Z,151693.94
2023-05-15T04:29:13.556Z,151582.44
2023-05-15T04:31:39.567Z,151568.53
2023-05-15T04:34:05.479Z,151631.84
2023-05-15T04:36:32.861Z,151638.16
2023-05-15T04:38:58.764Z,151658.47
2023-05-15T04:41:24.775Z,151658.47
2023-05-15T04:43:51.067Z,151631.84
2023-05-15T04:46:16.843Z,151673.63
2023-05-15T04:48:42.650Z,151669.84
2023-05-15T04:51:08.489Z,151686.31
2023-05-15T04:53:34.305Z,151704.06
2023-05-15T04:56:00.159Z,151702.78
2023-05-15T04:58:25.958Z,151695.19
2023-05-15T05:00:51.789Z,151709.09
2023-05-15T05:03:17.717Z,151662.25
2023-05-15T05:05:43.853Z,151652.09
2023-05-15T05:08:09.677Z,151687.56
2023-05-15T05:10:35.592Z,151658.47
2023-05-15T05:13:01.448Z,151638.16
2023-05-15T05:15:27.357Z,151617.91
2023-05-15T05:17:53.493Z,151628.06
2023-05-15T05:20:19.674Z,151669.84
2023-05-15T05:22:45.524Z,151701.53
2023-05-15T05:25:11.377Z,151648.31
2023-05-15T05:27:37.189Z,151624.25
2023-05-15T05:30:03.214Z,151614.09
2023-05-15T05:32:29.150Z,151624.25
2023-05-15T05:34:55.006Z,151609.06
2023-05-15T05:37:20.855Z,151636.91
2023-05-15T05:39:46.734Z,151654.63
2023-05-15T05:42:12.565Z,151669.84
2023-05-15T05:44:38.366Z,151661.00
2023-05-15T05:47:04.256Z,151676.19
2023-05-15T05:49:30.076Z,151620.44
2023-05-15T05:51:55.922Z,151653.38
2023-05-15T05:54:21.725Z,151642.00
2023-05-15T05:56:47.629Z,151626.78
2023-05-15T05:59:13.482Z,151701.53
2023-05-15T06:01:39.379Z,151680.00
2023-05-15T06:04:05.237Z,151680.00
2023-05-15T06:06:34.667Z,151659.72
2023-05-15T06:09:00.544Z,151661.00
2023-05-15T06:11:26.410Z,151640.72
2023-05-15T06:13:52.346Z,151604.00
2023-05-15T06:16:18.193Z,151531.81
2023-05-15T06:18:44.135Z,151579.91
2023-05-15T06:21:10.301Z,151629.31
2023-05-15T06:23:36.606Z,151609.06
2023-05-15T06:26:03.714Z,151605.28
2023-05-15T06:28:29.487Z,151598.91
2023-05-15T06:30:55.334Z,151620.44
2023-05-15T06:33:21.462Z,151644.53
2023-05-15T06:35:47.323Z,151609.06
2023-05-15T06:38:13.075Z,151642.00
2023-05-15T06:40:38.897Z,151683.78
2023-05-15T06:43:04.814Z,151719.25
2023-05-15T06:45:30.726Z,151673.63
2023-05-15T06:47:58.538Z,151729.41
2023-05-15T06:50:25.841Z,151811.81
2023-05-15T06:52:51.599Z,151797.84
2023-05-15T06:55:17.463Z,151794.06
2023-05-15T06:57:43.250Z,151797.84
2023-05-15T07:00:09.543Z,151725.56
2023-05-15T07:02:35.351Z,151669.84
2023-05-15T07:05:01.239Z,151710.38
2023-05-15T07:07:27.104Z,151759.84
2023-05-15T07:09:52.922Z,151814.31
2023-05-15T07:12:18.774Z,151884.03
2023-05-15T07:14:44.701Z,151861.25
2023-05-15T07:17:10.523Z,151901.78
2023-05-15T07:19:36.324Z,151846.03
2023-05-15T07:22:05.184Z,151882.78
2023-05-15T07:24:30.977Z,151859.97
2023-05-15T07:26:58.520Z,151915.75
2023-05-15T07:29:24.979Z,151922.06
2023-05-15T07:31:50.913Z,151920.81
2023-05-15T07:34:16.837Z,151909.38
2023-05-15T07:36:42.688Z,151944.88
2023-05-15T07:39:08.567Z,151891.69
2023-05-15T07:41:34.379Z,151923.34
2023-05-15T07:44:00.137Z,152021.00
2023-05-15T07:46:26.482Z,152027.31
2023-05-15T07:48:52.320Z,152046.31
2023-05-15T07:51:18.104Z,152029.84
2023-05-15T07:53:43.855Z,152009.56
2023-05-15T07:56:09.979Z,152067.88
2023-05-15T07:58:37.593Z,152069.16
2023-05-15T08:01:04.070Z,152122.47
2023-05-15T08:03:30.011Z,152119.94
2023-05-15T08:05:55.833Z,152140.22
2023-05-15T08:08:21.698Z,152166.88
2023-05-15T08:10:47.879Z,152132.63
2023-05-15T08:13:13.703Z,152132.63
2023-05-15T08:15:39.719Z,152117.41
2023-05-15T08:18:09.419Z,152126.31
2023-05-15T08:20:35.649Z,152147.88
2023-05-15T08:23:01.393Z,152141.50
2023-05-15T08:25:27.362Z,152206.22
2023-05-15T08:27:53.265Z,152217.66
2023-05-15T08:30:19.071Z,152196.03
2023-05-15T08:32:45.589Z,152216.38
2023-05-15T08:35:11.480Z,152269.63
2023-05-15T08:37:37.387Z,152335.63
2023-05-15T08:40:09.529Z,152322.94
2023-05-15T08:42:44.068Z,152330.56
2023-05-15T08:45:11.417Z,152376.22
2023-05-15T08:47:39.653Z,152434.72
2023-05-15T08:50:13.507Z,152312.78
2023-05-15T08:52:44.951Z,152361.03
2023-05-15T08:55:11.107Z,152325.50
2023-05-15T08:57:38.110Z,152322.94
2023-05-15T09:00:09.015Z,152352.13
2023-05-15T09:02:36.648Z,152368.63
2023-05-15T09:05:03.121Z,152400.38
2023-05-15T09:07:30.498Z,152401.66
2023-05-15T09:09:57.494Z,152405.44
2023-05-15T09:12:25.551Z,152424.53
2023-05-15T09:14:51.858Z,152449.91
2023-05-15T09:17:17.621Z,152465.16
2023-05-15T09:19:43.626Z,152515.94
2023-05-15T09:22:25.008Z,152592.13
2023-05-15T09:24:57.375Z,152651.88
2023-05-15T09:27:23.554Z,152617.56
2023-05-15T09:29:53.610Z,152531.19
2023-05-15T09:32:19.958Z,152556.56
2023-05-15T09:34:45.987Z,152593.41
2023-05-15T09:37:28.577Z,152565.47
2023-05-15T09:39:54.388Z,152637.88
2023-05-15T09:42:20.290Z,152691.22
2023-05-15T09:44:46.081Z,152640.41
2023-05-15T09:47:13.667Z,152599.78
2023-05-15T09:49:43.802Z,152707.81
2023-05-15T09:52:10.155Z,152735.72
2023-05-15T09:54:37.100Z,152804.34
2023-05-15T09:57:10.788Z,152759.91
2023-05-15T09:59:43.349Z,152734.47
2023-05-15T10:02:13.341Z,152810.69
2023-05-15T10:04:39.189Z,152786.56
2023-05-15T10:07:07.418Z,152806.88
2023-05-15T10:09:33.232Z,152809.44
2023-05-15T10:11:59.279Z,152857.72
2023-05-15T10:14:25.938Z,152917.47
2023-05-15T10:16:52.417Z,152928.91
2023-05-15T10:19:21.386Z,152925.09
2023-05-15T10:21:47.905Z,152958.16
2023-05-15T10:24:15.781Z,153011.63
2023-05-15T10:26:42.688Z,153062.44
2023-05-15T10:29:13.912Z,153243.13
2023-05-15T10:31:40.672Z,153292.75
2023-05-15T10:34:07.960Z,153400.91
2023-05-15T10:36:36.052Z,153487.53
2023-05-15T10:39:06.402Z,153501.56
2023-05-15T10:41:37.271Z,153481.13
2023-05-15T10:44:03.178Z,153495.16
2023-05-15T10:46:32.695Z,153482.47
2023-05-15T10:48:59.870Z,153407.25
2023-05-15T10:51:26.914Z,153327.13
2023-05-15T10:53:53.534Z,153336.00
2023-05-15T10:56:19.721Z,153372.91
2023-05-15T10:58:50.011Z,153342.38
2023-05-15T11:01:27.162Z,153341.13
2023-05-15T11:04:03.970Z,153360.22
2023-05-15T11:06:33.062Z,153334.72
2023-05-15T11:09:27.753Z,153533.34
2023-05-15T11:11:56.147Z,153491.34
2023-05-15T11:14:26.558Z,153436.56
2023-05-15T11:16:52.372Z,153515.53
2023-05-15T11:19:27.881Z,153599.56
2023-05-15T11:22:05.884Z,153576.66
2023-05-15T11:24:46.288Z,153543.56
2023-05-15T11:27:16.077Z,153642.84
2023-05-15T11:30:06.959Z,153668.34
2023-05-15T11:32:48.396Z,153623.75
2023-05-15T11:35:32.537Z,153870.97
2023-05-15T11:38:03.939Z,153978.06
2023-05-15T11:40:44.415Z,153924.53
2023-05-15T11:43:36.532Z,153832.75
2023-05-15T11:46:02.304Z,153739.75
2023-05-15T11:48:34.760Z,153546.09
2023-05-15T11:51:01.562Z,153400.91
2023-05-15T11:53:29.646Z,153338.59
2023-05-15T11:55:55.673Z,153544.81
2023-05-15T11:58:23.660Z,153724.44
2023-05-15T12:00:51.304Z,153807.22
2023-05-15T12:03:23.390Z,153766.47
2023-05-15T12:05:59.212Z,153693.84
2023-05-15T12:08:36.908Z,153580.47
2023-05-15T12:11:03.874Z,153394.56
2023-05-15T12:13:30.872Z,153288.94
2023-05-15T12:15:57.190Z,153302.94
2023-05-15T12:18:25.317Z,153296.56
2023-05-15T12:20:52.444Z,153168.00
2023-05-15T12:23:21.863Z,153138.78
2023-05-15T12:25:50.472Z,153131.13
2023-05-15T12:28:16.765Z,153189.63
2023-05-15T12:30:43.034Z,153203.63
2023-05-15T12:33:10.070Z,153188.38
2023-05-15T12:35:41.493Z,153221.50
2023-05-15T12:38:07.596Z,153182.03
2023-05-15T12:40:34.625Z,153208.72
2023-05-15T12:43:05.668Z,153213.84
2023-05-15T12:45:32.524Z,153211.28
2023-05-15T12:47:58.385Z,153325.84
2023-05-15T12:50:25.462Z,153527.00
2023-05-15T12:52:52.729Z,153814.91
2023-05-15T12:55:26.097Z,153756.31
2023-05-15T12:57:53.597Z,153619.94
2023-05-15T13:00:21.827Z,153434.03
2023-05-15T13:02:53.026Z,153423.81
2023-05-15T13:05:19.418Z,153532.06
2023-05-15T13:07:45.331Z,153569.00
2023-05-15T13:10:11.969Z,153760.13
2023-05-15T13:12:39.699Z,153823.78
2023-05-15T13:15:06.393Z,153902.88
2023-05-15T13:17:36.096Z,153958.94
2023-05-15T13:20:01.879Z,154053.28
2023-05-15T13:22:28.129Z,154253.53
2023-05-15T13:24:55.945Z,154247.16
2023-05-15T13:27:21.746Z,154335.25
2023-05-15T13:29:47.504Z,154300.75
2023-05-15T13:32:13.710Z,154007.41
2023-05-15T13:34:39.486Z,153846.75
2023-05-15T13:37:05.382Z,153966.59
2023-05-15T13:39:31.123Z,153895.16
2023-05-15T13:41:57.762Z,153899.00
2023-05-15T13:44:23.545Z,153826.38
2023-05-15T13:46:49.365Z,153633.97
2023-05-15T13:49:15.120Z,153552.44
2023-05-15T13:51:40.909Z,153542.28
2023-05-15T13:54:06.700Z,153577.94
2023-05-15T13:56:32.521Z,153633.97
2023-05-15T13:58:58.380Z,153755.03
2023-05-15T14:01:24.310Z,153865.88
2023-05-15T14:03:50.194Z,153854.38
2023-05-15T14:06:15.991Z,153943.66
2023-05-15T14:08:41.845Z,153943.66
2023-05-15T14:11:08.049Z,153874.78
2023-05-15T14:13:33.959Z,153897.69
2023-05-15T14:15:59.877Z,154058.34
2023-05-15T14:18:25.738Z,154026.53
2023-05-15T14:20:51.781Z,153994.66
2023-05-15T14:23:18.476Z,153910.50
2023-05-15T14:25:44.298Z,153765.19
2023-05-15T14:28:10.644Z,153763.94
2023-05-15T14:30:36.906Z,153739.75
2023-05-15T14:33:02.800Z,153735.94
2023-05-15T14:35:28.684Z,153753.75
2023-05-15T14:37:54.487Z,153650.53
2023-05-15T14:40:20.351Z,153755.03
2023-05-15T14:42:46.152Z,153718.09
2023-05-15T14:45:11.996Z,153635.25
2023-05-15T14:47:38.718Z,153628.88
2023-05-15T14:50:05.012Z,153693.84
2023-05-15T14:52:30.858Z,153832.75
2023-05-15T14:55:08.649Z,153863.34
2023-05-15T14:57:35.468Z,153855.66
2023-05-15T15:00:01.504Z,153816.16
2023-05-15T15:02:27.411Z,153813.63
2023-05-15T15:04:53.404Z,153790.72
2023-05-15T15:07:19.996Z,153742.28
2023-05-15T15:09:45.862Z,153716.78
2023-05-15T15:12:11.661Z,153654.34
2023-05-15T15:14:37.524Z,153556.31
2023-05-15T15:17:03.453Z,153542.28
2023-05-15T15:19:29.324Z,153579.22
2023-05-15T15:21:55.198Z,153732.06
2023-05-15T15:24:21.000Z,153742.28
2023-05-15T15:26:46.862Z,153668.34
2023-05-15T15:29:12.688Z,153572.84
2023-05-15T15:31:38.595Z,153476.06
2023-05-15T15:34:05.739Z,153594.50
2023-05-15T15:36:32.133Z,153660.69
2023-05-15T15:38:58.044Z,153633.97
2023-05-15T15:41:23.941Z,153684.97
2023-05-15T15:43:49.924Z,153579.22
2023-05-15T15:46:15.812Z,153645.44
2023-05-15T15:48:41.701Z,153719.38
2023-05-15T15:51:07.567Z,153737.19
2023-05-15T15:53:34.250Z,153683.66
2023-05-15T15:56:00.726Z,153612.31
2023-05-15T15:58:26.505Z,153395.84
2023-05-15T16:00:52.392Z,153337.31
2023-05-15T16:03:18.708Z,153253.31
2023-05-15T16:05:44.615Z,153145.13
2023-05-15T16:08:10.394Z,153179.47
2023-05-15T16:10:36.376Z,153148.94
2023-05-15T16:13:02.207Z,153128.59
2023-05-15T16:15:28.056Z,153131.13
2023-05-15T16:17:55.047Z,153108.25
2023-05-15T16:20:21.567Z,153047.19
2023-05-15T16:22:47.331Z,152987.44
2023-05-15T16:25:13.357Z,152956.84
2023-05-15T16:27:39.137Z,152888.25
2023-05-15T16:30:05.534Z,152920.00
2023-05-15T16:32:33.062Z,153025.56
2023-05-15T16:34:58.935Z,153189.63
2023-05-15T16:37:24.871Z,153202.38
2023-05-15T16:39:51.204Z,153234.22
2023-05-15T16:42:17.089Z,153299.09
2023-05-15T16:44:42.901Z,153253.31
2023-05-15T16:47:08.744Z,153171.81
2023-05-15T16:49:34.591Z,153082.78
2023-05-15T16:52:00.425Z,153005.22
2023-05-15T16:54:26.188Z,152969.63
2023-05-15T16:56:52.043Z,152928.91
2023-05-15T16:59:17.976Z,152880.59
2023-05-15T17:01:43.823Z,152875.53
2023-05-15T17:04:09.765Z,152828.47
2023-05-15T17:06:35.677Z,152875.53
2023-05-15T17:09:01.652Z,152898.38
2023-05-15T17:11:27.461Z,152926.38
2023-05-15T17:13:53.297Z,152899.66
2023-05-15T17:16:19.126Z,152876.78
2023-05-15T17:18:45.015Z,152870.47
2023-05-15T17:21:10.841Z,152833.59
2023-05-15T17:23:36.932Z,152789.09
2023-05-15T17:26:03.525Z,152759.91
2023-05-15T17:28:29.374Z,152725.59
2023-05-15T17:30:55.188Z,152762.44
2023-05-15T17:33:21.014Z,152761.16
2023-05-15T17:35:46.863Z,152766.22
2023-05-15T17:38:12.801Z,152752.25
2023-05-15T17:40:38.670Z,152731.94
2023-05-15T17:43:04.505Z,152720.47
2023-05-15T17:45:30.330Z,152750.97
2023-05-15T17:48:01.985Z,152729.38
2023-05-15T17:50:27.876Z,152726.84
2023-05-15T17:52:53.681Z,152723.06
2023-05-15T17:55:19.664Z,152744.66
2023-05-15T17:57:45.449Z,152750.97
2023-05-15T18:00:11.817Z,152701.41
2023-05-15T18:02:37.692Z,152639.16
2023-05-15T18:05:03.726Z,152620.09
2023-05-15T18:07:29.676Z,152562.94
2023-05-15T18:09:55.482Z,152576.88
2023-05-15T18:12:21.455Z,152535.00
2023-05-15T18:14:47.274Z,152512.16
2023-05-15T18:17:13.121Z,152485.47
2023-05-15T18:19:39.368Z,152493.09
2023-05-15T18:22:05.254Z,152523.59
2023-05-15T18:24:33.500Z,152481.66
2023-05-15T18:26:59.305Z,152471.53
2023-05-15T18:29:25.332Z,152446.09
2023-05-15T18:31:51.361Z,152428.34
2023-05-15T18:34:17.314Z,152430.88
2023-05-15T18:36:43.383Z,152413.09
2023-05-15T18:39:09.266Z,152352.13
2023-05-15T18:41:38.241Z,152367.38
2023-05-15T18:44:04.237Z,152335.63
2023-05-15T18:46:31.032Z,152343.28
2023-05-15T18:48:56.934Z,152367.38
2023-05-15T18:51:23.376Z,152348.34
2023-05-15T18:53:49.828Z,152277.25
2023-05-15T18:56:15.647Z,152287.38
2023-05-15T18:58:41.580Z,152264.56
2023-05-15T19:01:07.595Z,152251.84
2023-05-15T19:03:36.681Z,152199.88
2023-05-15T19:06:02.685Z,152197.31
2023-05-15T19:08:28.600Z,152196.03
2023-05-15T19:10:54.443Z,152190.97
2023-05-15T19:13:20.422Z,152185.91
2023-05-15T19:15:51.040Z,152225.22
2023-05-15T19:18:17.562Z,152152.91
2023-05-15T19:20:43.771Z,152178.28
2023-05-15T19:23:09.862Z,152108.56
2023-05-15T19:25:35.927Z,152107.22
2023-05-15T19:28:01.889Z,152081.84
2023-05-15T19:30:27.888Z,152084.38
2023-05-15T19:32:53.894Z,152060.28
2023-05-15T19:35:19.938Z,152046.31
2023-05-15T19:37:45.965Z,152053.97
2023-05-15T19:40:12.343Z,152043.81
2023-05-15T19:42:38.151Z,152003.22
2023-05-15T19:45:04.509Z,151976.59
2023-05-15T19:47:30.340Z,151953.78
2023-05-15T19:49:56.266Z,151970.25
2023-05-15T19:52:22.199Z,151967.72
2023-05-15T19:54:48.290Z,151990.53
2023-05-15T19:57:14.713Z,151984.22
2023-05-15T19:59:40.709Z,151979.13
2023-05-15T20:02:09.725Z,151980.38
2023-05-15T20:04:36.264Z,152009.56
2023-05-15T20:07:03.462Z,152004.50
2023-05-15T20:09:29.677Z,152008.28
2023-05-15T20:11:55.731Z,151976.59
2023-05-15T20:14:21.621Z,151976.59
2023-05-15T20:16:47.487Z,151988.00
2023-05-15T20:19:14.005Z,151976.59
2023-05-15T20:21:39.903Z,151981.63
2023-05-15T20:24:06.217Z,151995.59
2023-05-15T20:26:32.090Z,151996.88
2023-05-15T20:28:57.974Z,151949.97
2023-05-15T20:31:23.825Z,151988.00
2023-05-15T20:33:50.093Z,151941.09
2023-05-15T20:36:16.062Z,151903.06
2023-05-15T20:38:43.393Z,151932.22
2023-05-15T20:41:09.171Z,151924.59
2023-05-15T20:43:35.002Z,151949.97
2023-05-15T20:46:00.866Z,151937.28
2023-05-15T20:48:26.781Z,151933.50
2023-05-15T20:50:53.087Z,151906.84
2023-05-15T20:53:18.918Z,151900.53
2023-05-15T20:55:45.073Z,151884.03
2023-05-15T20:58:10.929Z,151881.50
2023-05-15T21:00:36.898Z,151905.59
2023-05-15T21:03:02.747Z,151909.38
2023-05-15T21:05:28.653Z,151927.13
2023-05-15T21:07:54.521Z,151865.03
2023-05-15T21:10:20.319Z,151879.00
2023-05-15T21:12:46.214Z,151879.00
2023-05-15T21:15:12.132Z,151879.00
2023-05-15T21:17:38.485Z,151873.94
2023-05-15T21:20:04.916Z,151823.22
2023-05-15T21:22:30.758Z,151862.50
2023-05-15T21:24:57.013Z,151873.94
2023-05-15T21:27:23.006Z,151838.44
2023-05-15T21:29:48.801Z,151809.28
2023-05-15T21:32:14.717Z,151852.34
2023-05-15T21:34:40.719Z,151875.19
2023-05-15T21:37:06.534Z,151849.81
2023-05-15T21:39:32.447Z,151870.09
2023-05-15T21:41:58.362Z,151894.22
2023-05-15T21:44:24.177Z,151873.94
2023-05-15T21:46:50.419Z,151865.03
2023-05-15T21:49:16.236Z,151865.03
2023-05-15T21:51:42.039Z,151839.72
2023-05-15T21:54:07.876Z,151856.19
2023-05-15T21:56:33.750Z,151862.50
2023-05-15T21:58:59.516Z,151859.97
2023-05-15T22:01:25.502Z,151840.97
2023-05-15T22:03:51.424Z,151815.59
2023-05-15T22:06:17.481Z,151804.22
2023-05-15T22:08:43.398Z,151801.69
2023-05-15T22:11:09.218Z,151783.94
2023-05-15T22:13:35.104Z,151804.22
2023-05-15T22:16:02.161Z,151773.78
2023-05-15T22:18:28.740Z,151772.53
2023-05-15T22:20:54.793Z,151761.09
2023-05-15T22:23:20.688Z,151754.78
2023-05-15T22:25:48.225Z,151738.25
2023-05-15T22:28:15.524Z,151777.59
2023-05-15T22:30:41.336Z,151764.91
2023-05-15T22:33:07.201Z,151745.84
2023-05-15T22:35:33.100Z,151711.69
2023-05-15T22:37:58.863Z,151725.56
2023-05-15T22:40:25.459Z,151728.09
2023-05-15T22:42:51.618Z,151707.84
2023-05-15T22:45:18.582Z,151742.06
2023-05-15T22:47:44.874Z,151692.63
2023-05-15T22:50:10.872Z,151687.56
2023-05-15T22:52:37.487Z,151707.84
2023-05-15T22:55:03.621Z,151691.38
2023-05-15T22:57:29.465Z,151669.84
2023-05-15T22:59:55.318Z,151711.69
2023-05-15T23:02:21.569Z,151699.00
2023-05-15T23:12:28.575Z,151661.00
2023-05-15T23:14:54.513Z,151654.63
2023-05-15T23:17:20.267Z,151649.56
2023-05-15T23:19:46.014Z,151624.25
2023-05-15T23:22:11.935Z,151654.63
2023-05-15T23:24:37.674Z,151636.91
2023-05-15T23:27:04.877Z,151634.38
2023-05-15T23:29:33.049Z,151616.63
2023-05-15T23:31:59.078Z,151607.78
2023-05-15T23:34:25.091Z,151621.75
2023-05-15T23:36:50.867Z,151596.38
2023-05-15T23:39:16.762Z,151636.91
2023-05-15T23:41:42.589Z,151610.31
2023-05-15T23:44:08.369Z,151578.66
2023-05-15T23:46:37.185Z,151582.44
2023-05-15T23:49:03.849Z,151601.44
2023-05-15T23:51:30.341Z,151591.31
2023-05-15T23:53:56.107Z,151579.91
2023-05-15T23:56:23.073Z,151567.28
2023-05-15T23:58:49.099Z,151557.13
